createdAt,value
2023-01-26T00:00:43.685Z,25.00
2023-01-26T00:03:13.237Z,24.65
2023-01-26T00:05:43.801Z,24.12
2023-01-26T00:08:14.272Z,24.02
2023-01-26T00:10:49.207Z,26.87
2023-01-26T00:13:23.305Z,26.80
2023-01-26T00:15:52.932Z,24.72
2023-01-26T00:18:22.425Z,26.75
2023-01-26T00:21:01.311Z,24.90
2023-01-26T00:23:33.086Z,25.95
2023-01-26T00:26:03.648Z,25.65
2023-01-26T00:28:33.341Z,26.00
2023-01-26T00:31:07.752Z,25.10
2023-01-26T00:33:39.081Z,24.25
2023-01-26T00:36:09.539Z,23.77
2023-01-26T00:38:39.718Z,23.22
2023-01-26T00:41:13.537Z,25.47
2023-01-26T00:43:44.004Z,24.40
2023-01-26T00:46:15.157Z,24.90
2023-01-26T00:48:45.204Z,24.70
2023-01-26T00:51:15.242Z,23.98
2023-01-26T00:53:44.735Z,23.42
2023-01-26T00:56:15.077Z,25.08
2023-01-26T00:58:45.769Z,23.87
2023-01-26T01:01:15.302Z,24.40
2023-01-26T01:03:45.059Z,24.30
2023-01-26T01:06:14.487Z,23.80
2023-01-26T01:08:43.913Z,24.18
2023-01-26T01:11:13.569Z,23.12
2023-01-26T01:13:43.131Z,23.77
2023-01-26T01:16:16.765Z,24.92
2023-01-26T01:18:47.585Z,22.20
2023-01-26T01:21:18.637Z,23.40
2023-01-26T01:23:49.067Z,22.58
2023-01-26T01:26:20.424Z,22.05
2023-01-26T01:28:51.265Z,23.83
2023-01-26T01:31:20.819Z,21.42
2023-01-26T01:33:52.803Z,23.73
2023-01-26T01:36:22.861Z,21.45
2023-01-26T01:38:54.121Z,21.95
2023-01-26T01:41:24.204Z,22.27
2023-01-26T01:44:00.311Z,21.93
2023-01-26T01:46:35.731Z,20.68
2023-01-26T01:49:08.495Z,20.35
2023-01-26T01:51:53.172Z,22.50
2023-01-26T01:54:30.335Z,22.48
2023-01-26T01:57:03.701Z,19.50
2023-01-26T01:59:35.375Z,20.68
2023-01-26T02:02:04.895Z,18.43
2023-01-26T02:04:35.446Z,20.10
2023-01-26T02:07:06.283Z,19.75
2023-01-26T02:09:57.217Z,18.42
2023-01-26T02:12:29.714Z,19.60
2023-01-26T02:15:01.170Z,18.37
2023-01-26T02:17:30.810Z,20.37
2023-01-26T02:20:24.441Z,19.50
2023-01-26T02:23:06.513Z,18.05
2023-01-26T02:25:42.958Z,20.57
2023-01-26T02:28:12.687Z,19.23
2023-01-26T02:30:42.401Z,20.65
2023-01-26T02:33:28.060Z,19.82
2023-01-26T02:35:59.532Z,19.02
2023-01-26T02:38:32.234Z,18.73
2023-01-26T02:41:07.285Z,19.02
2023-01-26T02:43:37.901Z,19.25
2023-01-26T02:46:07.392Z,19.25
2023-01-26T02:48:56.536Z,18.77
2023-01-26T02:51:26.113Z,20.32
2023-01-26T02:53:55.849Z,20.32
2023-01-26T02:56:25.577Z,21.27
2023-01-26T02:58:56.486Z,19.10
2023-01-26T03:01:26.065Z,20.25
2023-01-26T03:03:55.553Z,19.15
2023-01-26T03:06:25.435Z,19.92
2023-01-26T03:08:55.481Z,20.37
2023-01-26T03:11:26.621Z,19.55
2023-01-26T03:13:56.188Z,20.90
2023-01-26T03:16:25.615Z,19.42
2023-01-26T03:19:06.049Z,18.87
2023-01-26T03:21:53.671Z,18.30
2023-01-26T03:25:58.360Z,18.05
2023-01-26T03:28:29.261Z,18.00
2023-01-26T03:30:59.706Z,19.65
2023-01-26T03:33:30.581Z,19.43
2023-01-26T03:36:00.330Z,18.07
2023-01-26T03:38:29.844Z,19.23
2023-01-26T03:41:18.844Z,18.32
2023-01-26T03:44:05.870Z,18.35
2023-01-26T03:46:53.704Z,18.70
2023-01-26T03:49:41.339Z,19.07
2023-01-26T03:52:29.348Z,17.42
2023-01-26T03:55:16.885Z,18.57
2023-01-26T03:57:46.509Z,17.65
2023-01-26T04:00:16.355Z,18.60
2023-01-26T04:03:05.260Z,18.35
2023-01-26T04:05:52.845Z,18.55
2023-01-26T04:08:27.617Z,17.52
2023-01-26T04:11:01.792Z,18.00
2023-01-26T04:13:50.587Z,16.90
2023-01-26T04:16:42.605Z,17.27
2023-01-26T04:19:30.856Z,18.67
2023-01-26T04:22:03.585Z,18.85
2023-01-26T04:24:34.960Z,17.57
2023-01-26T04:27:04.464Z,18.60
2023-01-26T04:29:35.680Z,17.87
2023-01-26T04:32:05.694Z,17.87
2023-01-26T04:34:36.355Z,18.73
2023-01-26T04:37:07.559Z,17.57
2023-01-26T04:39:38.959Z,17.42
2023-01-26T04:42:09.334Z,17.07
2023-01-26T04:44:38.750Z,18.15
2023-01-26T04:47:09.043Z,17.62
2023-01-26T04:49:39.607Z,17.48
2023-01-26T04:52:09.489Z,16.35
2023-01-26T04:54:39.971Z,16.67
2023-01-26T04:57:09.682Z,17.07
2023-01-26T04:59:40.175Z,16.40
2023-01-26T05:02:11.279Z,16.40
2023-01-26T05:04:41.339Z,18.23
2023-01-26T05:07:11.015Z,17.55
2023-01-26T05:09:40.818Z,16.70
2023-01-26T05:12:33.383Z,15.72
2023-01-26T05:15:16.420Z,16.32
2023-01-26T05:17:48.152Z,15.53
2023-01-26T05:20:19.418Z,15.87
2023-01-26T05:25:33.947Z,14.47
2023-01-26T05:28:05.656Z,15.80
2023-01-26T05:30:35.746Z,14.58
2023-01-26T05:33:07.742Z,15.15
2023-01-26T05:35:37.785Z,14.33
2023-01-26T05:38:10.198Z,15.73
2023-01-26T05:40:40.255Z,14.07
2023-01-26T05:43:13.036Z,14.35
2023-01-26T05:45:44.865Z,13.40
2023-01-26T05:48:15.685Z,13.32
2023-01-26T05:50:46.391Z,14.03
2023-01-26T05:53:18.092Z,14.78
2023-01-26T05:55:48.760Z,13.32
2023-01-26T05:58:20.467Z,13.50
2023-01-26T06:00:50.458Z,13.45
2023-01-26T06:03:22.455Z,14.97
2023-01-26T06:05:56.840Z,11.73
2023-01-26T06:08:28.396Z,12.70
2023-01-26T06:11:02.347Z,14.00
2023-01-26T06:13:42.463Z,13.55
2023-01-26T06:16:16.758Z,13.00
2023-01-26T06:18:50.182Z,13.48
2023-01-26T06:21:20.240Z,13.28
2023-01-26T06:23:49.729Z,13.45
2023-01-26T06:26:19.883Z,13.45
2023-01-26T06:28:49.992Z,13.97
2023-01-26T06:31:23.971Z,13.83
2023-01-26T06:33:55.307Z,14.60
2023-01-26T06:36:24.954Z,14.25
2023-01-26T06:38:56.687Z,13.28
2023-01-26T06:41:26.799Z,13.85
2023-01-26T06:43:56.370Z,13.68
2023-01-26T06:46:25.966Z,13.95
2023-01-26T06:48:56.800Z,13.78
2023-01-26T06:51:50.002Z,14.38
2023-01-26T06:54:19.749Z,13.05
2023-01-26T06:56:56.434Z,13.38
2023-01-26T06:59:35.307Z,15.20
2023-01-26T07:02:23.318Z,13.48
2023-01-26T07:04:54.649Z,13.97
2023-01-26T07:07:24.157Z,13.83
2023-01-26T07:09:53.581Z,13.88
2023-01-26T07:12:23.527Z,13.90
2023-01-26T07:14:52.976Z,14.95
2023-01-26T07:17:22.405Z,16.27
2023-01-26T07:19:52.045Z,15.13
2023-01-26T07:22:21.536Z,15.60
2023-01-26T07:24:51.016Z,15.15
2023-01-26T07:27:20.703Z,15.05
2023-01-26T07:29:51.611Z,15.10
2023-01-26T07:32:21.617Z,15.05
2023-01-26T07:34:51.113Z,15.85
2023-01-26T07:37:20.724Z,17.05
2023-01-26T07:39:50.202Z,16.27
2023-01-26T07:42:19.622Z,14.40
2023-01-26T07:44:50.837Z,13.93
2023-01-26T07:47:20.273Z,11.80
2023-01-26T07:49:50.472Z,11.85
2023-01-26T07:52:19.992Z,11.97
2023-01-26T07:54:49.555Z,11.80
2023-01-26T07:57:19.232Z,12.53
2023-01-26T07:59:48.688Z,11.93
2023-01-26T08:02:18.098Z,12.25
2023-01-26T08:04:47.698Z,12.30
2023-01-26T08:07:17.133Z,12.15
2023-01-26T08:09:47.958Z,12.15
2023-01-26T08:12:17.517Z,13.88
2023-01-26T08:14:47.445Z,12.65
2023-01-26T08:17:18.030Z,12.13
2023-01-26T08:19:47.930Z,13.20
2023-01-26T08:22:17.420Z,16.65
2023-01-26T08:24:46.916Z,16.37
2023-01-26T08:27:17.657Z,15.08
2023-01-26T08:29:47.084Z,14.85
2023-01-26T08:32:16.598Z,14.38
2023-01-26T08:34:46.591Z,15.20
2023-01-26T08:37:16.110Z,15.93
2023-01-26T08:39:45.548Z,15.03
2023-01-26T08:42:15.728Z,14.75
2023-01-26T08:44:45.428Z,16.55
2023-01-26T08:47:14.911Z,15.90
2023-01-26T08:49:44.460Z,17.62
2023-01-26T08:52:14.697Z,18.07
2023-01-26T08:54:44.675Z,16.95
2023-01-26T08:57:14.132Z,16.65
2023-01-26T08:59:43.631Z,17.52
2023-01-26T09:02:13.653Z,17.20
2023-01-26T09:04:43.393Z,16.23
2023-01-26T09:07:13.598Z,17.30
2023-01-26T09:09:43.504Z,16.42
2023-01-26T09:12:13.016Z,17.23
2023-01-26T09:14:42.553Z,17.32
2023-01-26T09:17:12.001Z,16.23
2023-01-26T09:19:43.041Z,17.67
2023-01-26T09:22:12.577Z,18.45
2023-01-26T09:24:42.073Z,21.02
2023-01-26T09:27:11.546Z,19.52
2023-01-26T09:29:41.121Z,17.90
2023-01-26T09:32:10.610Z,17.27
2023-01-26T09:34:40.038Z,18.02
2023-01-26T09:37:10.198Z,17.77
2023-01-26T09:39:39.733Z,18.35
2023-01-26T09:42:47.226Z,17.65
2023-01-26T09:45:19.800Z,17.48
2023-01-26T09:47:58.276Z,17.17
2023-01-26T09:50:30.785Z,16.17
2023-01-26T09:53:09.476Z,16.27
2023-01-26T09:55:41.164Z,16.05
2023-01-26T09:58:23.197Z,16.30
2023-01-26T10:00:55.540Z,17.43
2023-01-26T10:03:28.557Z,14.53
2023-01-26T10:08:33.728Z,15.80
2023-01-26T10:11:09.802Z,17.37
2023-01-26T10:13:39.697Z,16.95
2023-01-26T10:16:12.503Z,18.02
2023-01-26T10:18:51.473Z,17.32
2023-01-26T10:21:24.119Z,16.15
2023-01-26T10:23:54.368Z,17.70
2023-01-26T10:26:24.774Z,16.07
2023-01-26T10:28:54.883Z,16.40
2023-01-26T10:31:27.485Z,17.32
2023-01-26T10:34:00.176Z,17.80
2023-01-26T10:36:33.592Z,18.10
2023-01-26T10:39:13.577Z,15.88
2023-01-26T10:41:51.480Z,16.02
2023-01-26T10:44:24.050Z,15.58
2023-01-26T10:47:05.857Z,14.93
2023-01-26T10:49:35.865Z,17.62
2023-01-26T10:52:24.939Z,14.98
2023-01-26T10:54:57.736Z,15.48
2023-01-26T10:57:29.775Z,14.80
2023-01-26T11:00:09.729Z,13.80
2023-01-26T11:02:40.847Z,12.95
2023-01-26T11:05:13.817Z,12.13
2023-01-26T11:07:49.620Z,12.23
2023-01-26T11:10:37.612Z,13.18
2023-01-26T11:13:20.885Z,14.33
2023-01-26T11:15:53.458Z,14.60
2023-01-26T11:18:35.103Z,11.55
2023-01-26T11:21:41.564Z,11.35
2023-01-26T11:24:18.267Z,12.78
2023-01-26T11:27:15.094Z,11.93
2023-01-26T11:30:20.697Z,11.20
2023-01-26T11:33:02.250Z,11.22
2023-01-26T11:35:53.715Z,13.18
2023-01-26T11:38:35.461Z,10.82
2023-01-26T11:41:26.113Z,10.03
2023-01-26T11:44:16.736Z,10.60
2023-01-26T11:47:22.849Z,10.90
2023-01-26T11:50:01.550Z,10.82
2023-01-26T11:52:46.535Z,10.05
2023-01-26T11:55:45.693Z,10.30
2023-01-26T11:58:27.427Z,11.22
2023-01-26T12:01:00.001Z,10.43
2023-01-26T12:03:44.364Z,9.78
2023-01-26T12:06:23.344Z,9.35
2023-01-26T12:09:01.067Z,12.23
2023-01-26T12:11:37.258Z,10.80
2023-01-26T12:14:15.657Z,10.13
2023-01-26T12:17:17.736Z,9.58
2023-01-26T12:20:04.671Z,9.60
2023-01-26T12:22:45.263Z,10.15
2023-01-26T12:25:29.908Z,10.78
2023-01-26T12:28:23.931Z,9.55
2023-01-26T12:31:18.128Z,9.63
2023-01-26T12:33:50.640Z,10.75
2023-01-26T12:36:44.006Z,9.83
2023-01-26T12:39:19.536Z,10.13
2023-01-26T12:42:16.060Z,8.25
2023-01-26T12:44:51.683Z,8.45
2023-01-26T12:47:24.183Z,8.43
2023-01-26T12:50:29.915Z,9.35
2023-01-26T12:53:17.582Z,9.75
2023-01-26T12:55:59.611Z,9.18
2023-01-26T12:58:32.113Z,7.35
2023-01-26T13:01:05.411Z,8.30
2023-01-26T13:03:43.630Z,8.40
2023-01-26T13:06:19.647Z,9.35
2023-01-26T13:09:23.952Z,9.88
2023-01-26T13:12:01.564Z,10.03
2023-01-26T13:14:46.301Z,8.08
2023-01-26T13:17:23.349Z,8.00
2023-01-26T13:19:55.126Z,8.10
2023-01-26T13:22:27.604Z,8.48
2023-01-26T13:25:03.495Z,7.40
2023-01-26T13:30:04.031Z,6.72
2023-01-26T13:32:36.681Z,8.18
2023-01-26T13:35:09.147Z,6.33
2023-01-26T13:37:58.200Z,6.90
2023-01-26T13:40:39.576Z,6.58
2023-01-26T13:43:26.328Z,7.55
2023-01-26T13:45:58.543Z,6.85
2023-01-26T13:48:46.559Z,6.37
2023-01-26T13:51:19.128Z,6.85
2023-01-26T13:53:57.965Z,7.33
2023-01-26T13:56:32.467Z,7.05
2023-01-26T13:59:07.793Z,6.37
2023-01-26T14:01:43.174Z,6.17
2023-01-26T14:04:21.935Z,6.40
2023-01-26T14:07:00.340Z,7.15
2023-01-26T14:09:33.700Z,6.87
2023-01-26T14:12:05.923Z,7.42
2023-01-26T14:14:38.363Z,6.67
2023-01-26T14:17:11.180Z,5.85
2023-01-26T14:19:42.973Z,6.62
2023-01-26T14:22:15.213Z,7.27
2023-01-26T14:24:46.170Z,6.55
2023-01-26T14:27:33.641Z,7.17
2023-01-26T14:30:05.736Z,7.05
2023-01-26T14:32:35.377Z,6.72
2023-01-26T14:35:07.214Z,6.30
2023-01-26T14:37:36.778Z,6.15
2023-01-26T14:40:17.992Z,5.53
2023-01-26T14:42:50.424Z,5.37
2023-01-26T14:45:23.564Z,5.03
2023-01-26T14:47:54.737Z,5.40
2023-01-26T14:50:31.769Z,5.05
2023-01-26T14:53:04.823Z,5.80
2023-01-26T14:55:37.055Z,5.97
2023-01-26T14:58:10.852Z,6.12
2023-01-26T15:00:40.469Z,6.72
2023-01-26T15:03:15.704Z,7.10
2023-01-26T15:05:45.583Z,7.40
2023-01-26T15:08:21.096Z,6.37
2023-01-26T15:11:20.970Z,6.60
2023-01-26T15:13:56.253Z,6.10
2023-01-26T15:16:27.458Z,5.97
2023-01-26T15:19:09.276Z,6.13
2023-01-26T15:21:41.027Z,8.30
2023-01-26T15:24:15.953Z,6.78
2023-01-26T15:26:45.637Z,7.60
2023-01-26T15:29:27.540Z,7.45
2023-01-26T15:31:59.241Z,7.53
2023-01-26T15:34:37.892Z,7.10
2023-01-26T15:37:32.567Z,10.45
2023-01-26T15:40:02.751Z,7.97
2023-01-26T15:42:33.609Z,8.23
2023-01-26T15:45:03.741Z,8.30
2023-01-26T15:47:33.158Z,7.50
2023-01-26T15:50:03.848Z,7.40
2023-01-26T15:52:33.648Z,7.25
2023-01-26T15:55:03.193Z,8.85
2023-01-26T15:57:33.577Z,9.73
2023-01-26T16:00:05.206Z,8.15
2023-01-26T16:02:35.718Z,8.30
2023-01-26T16:05:05.502Z,16.90
2023-01-26T16:07:35.141Z,9.73
2023-01-26T16:10:05.812Z,11.08
2023-01-26T16:12:35.238Z,30.25
2023-01-26T16:15:06.880Z,22.07
2023-01-26T16:17:36.380Z,22.30
2023-01-26T16:20:07.173Z,23.30
2023-01-26T16:22:36.723Z,9.08
2023-01-26T16:25:26.199Z,8.85
2023-01-26T16:27:56.740Z,8.58
2023-01-26T16:30:27.898Z,7.60
2023-01-26T16:32:57.676Z,10.28
2023-01-26T16:35:29.689Z,12.53
2023-01-26T16:37:59.350Z,11.50
2023-01-26T16:40:29.560Z,10.32
2023-01-26T16:42:59.058Z,10.32
2023-01-26T16:45:28.578Z,8.70
2023-01-26T16:48:00.268Z,8.48
2023-01-26T16:50:31.525Z,9.23
2023-01-26T16:53:03.042Z,10.35
2023-01-26T16:55:32.447Z,11.10
2023-01-26T16:58:01.945Z,16.67
2023-01-26T17:00:32.630Z,14.78
2023-01-26T17:03:02.191Z,9.63
2023-01-26T17:05:31.673Z,9.73
2023-01-26T17:08:01.216Z,13.70
2023-01-26T17:10:30.785Z,9.65
2023-01-26T17:13:01.358Z,12.65
2023-01-26T17:15:31.566Z,11.08
2023-01-26T17:18:01.658Z,10.98
2023-01-26T17:20:32.495Z,11.43
2023-01-26T17:23:01.925Z,11.05
2023-01-26T17:25:31.573Z,13.18
2023-01-26T17:28:01.264Z,13.62
2023-01-26T17:30:30.811Z,28.30
2023-01-26T17:33:02.498Z,16.15
2023-01-26T17:35:31.925Z,12.15
2023-01-26T17:38:01.369Z,13.50
2023-01-26T17:40:31.497Z,28.20
2023-01-26T17:43:00.938Z,17.75
2023-01-26T17:45:30.533Z,17.60
2023-01-26T17:48:00.629Z,26.85
2023-01-26T17:50:31.027Z,22.22
2023-01-26T17:53:00.493Z,23.70
2023-01-26T17:55:29.930Z,15.30
2023-01-26T17:57:59.361Z,14.10
2023-01-26T18:00:29.576Z,12.65
2023-01-26T18:02:59.549Z,14.03
2023-01-26T18:05:30.059Z,12.95
2023-01-26T18:07:59.864Z,12.40
2023-01-26T18:10:31.151Z,14.53
2023-01-26T18:13:00.632Z,11.48
2023-01-26T18:15:30.059Z,11.88
2023-01-26T18:17:59.550Z,11.40
2023-01-26T18:20:29.200Z,12.93
2023-01-26T18:22:58.633Z,14.18
2023-01-26T18:25:28.919Z,15.25
2023-01-26T18:27:58.650Z,13.95
2023-01-26T18:30:28.379Z,13.15
2023-01-26T18:32:58.474Z,17.12
2023-01-26T18:35:28.117Z,12.63
2023-01-26T18:37:59.431Z,12.60
2023-01-26T18:40:30.988Z,13.03
2023-01-26T18:43:01.420Z,13.13
2023-01-26T18:45:30.847Z,13.20
2023-01-26T18:48:00.392Z,14.85
2023-01-26T18:50:29.923Z,12.28
2023-01-26T18:52:59.350Z,12.28
2023-01-26T18:55:28.878Z,12.25
2023-01-26T18:57:58.698Z,14.10
2023-01-26T19:00:28.201Z,14.18
2023-01-26T19:02:57.730Z,27.62
2023-01-26T19:05:28.323Z,16.65
2023-01-26T19:07:58.489Z,16.27
2023-01-26T19:10:29.542Z,16.10
2023-01-26T19:12:58.963Z,14.35
2023-01-26T19:15:28.416Z,12.75
2023-01-26T19:17:58.595Z,14.18
2023-01-26T19:20:28.866Z,13.45
2023-01-26T19:22:58.340Z,11.60
2023-01-26T19:25:28.332Z,11.53
2023-01-26T19:27:57.998Z,11.22
2023-01-26T19:30:27.932Z,10.25
2023-01-26T19:33:16.039Z,10.63
2023-01-26T19:35:45.790Z,10.43
2023-01-26T19:38:15.283Z,12.10
2023-01-26T19:40:47.510Z,11.80
2023-01-26T19:43:20.401Z,21.73
2023-01-26T19:45:53.089Z,14.00
2023-01-26T19:48:25.401Z,16.70
2023-01-26T19:51:17.704Z,35.03
2023-01-26T19:53:49.195Z,20.83
2023-01-26T19:56:22.198Z,13.30
2023-01-26T19:58:57.288Z,11.43
2023-01-26T20:01:29.846Z,10.82
2023-01-26T20:04:02.383Z,10.08
2023-01-26T20:09:03.958Z,9.73
2023-01-26T20:11:35.989Z,9.98
2023-01-26T20:14:09.812Z,10.70
2023-01-26T20:16:40.716Z,9.23
2023-01-26T20:19:11.853Z,9.55
2023-01-26T20:21:41.446Z,9.70
2023-01-26T20:24:14.104Z,11.08
2023-01-26T20:26:44.976Z,9.80
2023-01-26T20:29:17.010Z,8.23
2023-01-26T20:31:47.296Z,7.83
2023-01-26T20:34:17.763Z,10.28
2023-01-26T20:36:47.849Z,10.38
2023-01-26T20:39:20.890Z,9.18
2023-01-26T20:41:51.418Z,8.90
2023-01-26T20:44:20.989Z,9.38
2023-01-26T20:46:52.060Z,8.83
2023-01-26T20:49:21.635Z,9.80
2023-01-26T20:51:51.130Z,10.38
2023-01-26T20:54:21.261Z,11.60
2023-01-26T20:56:51.757Z,11.03
2023-01-26T21:01:51.446Z,8.13
2023-01-26T21:04:20.958Z,8.80
2023-01-26T21:06:50.994Z,8.45
2023-01-26T21:09:21.555Z,8.78
2023-01-26T21:11:51.959Z,9.43
2023-01-26T21:14:21.369Z,8.35
2023-01-26T21:16:50.867Z,8.43
2023-01-26T21:19:22.557Z,10.15
2023-01-26T21:21:52.054Z,17.87
2023-01-26T21:24:23.784Z,12.05
2023-01-26T21:26:53.406Z,12.95
2023-01-26T21:29:24.028Z,37.10
2023-01-26T21:31:53.501Z,11.83
2023-01-26T21:34:23.654Z,12.68
2023-01-26T21:36:53.087Z,22.80
2023-01-26T21:39:22.519Z,17.60
2023-01-26T21:41:57.823Z,12.37
2023-01-26T21:44:29.669Z,13.45
2023-01-26T21:47:03.758Z,12.27
2023-01-26T21:49:33.251Z,12.95
2023-01-26T21:52:20.655Z,11.03
2023-01-26T21:54:50.092Z,12.45
2023-01-26T21:57:37.559Z,14.00
2023-01-26T22:00:08.404Z,9.68
2023-01-26T22:02:37.853Z,12.55
2023-01-26T22:05:08.847Z,10.00
2023-01-26T22:10:08.452Z,10.93
2023-01-26T22:12:39.381Z,15.47
2023-01-26T22:15:10.992Z,11.57
2023-01-26T22:17:40.415Z,9.90
2023-01-26T22:20:12.541Z,10.32
2023-01-26T22:22:42.711Z,9.45
2023-01-26T22:25:12.199Z,10.55
2023-01-26T22:27:42.577Z,10.05
2023-01-26T22:30:13.063Z,9.93
2023-01-26T22:32:44.230Z,8.68
2023-01-26T22:35:13.869Z,9.23
2023-01-26T22:37:43.304Z,10.55
2023-01-26T22:40:15.509Z,10.10
2023-01-26T22:42:46.977Z,9.00
2023-01-26T22:45:16.538Z,9.38
2023-01-26T22:47:46.404Z,8.23
2023-01-26T22:50:17.396Z,9.18
2023-01-26T22:52:46.802Z,9.83
2023-01-26T22:55:16.378Z,9.90
2023-01-26T22:57:46.050Z,9.58
2023-01-26T23:00:15.725Z,9.88
2023-01-26T23:02:45.170Z,10.90
2023-01-26T23:05:14.692Z,8.98
2023-01-26T23:07:44.421Z,9.00
2023-01-26T23:10:14.287Z,10.72
2023-01-26T23:12:44.420Z,10.83
2023-01-26T23:15:14.594Z,9.65
2023-01-26T23:17:44.214Z,8.68
2023-01-26T23:20:13.991Z,8.08
2023-01-26T23:22:44.137Z,8.28
2023-01-26T23:25:32.452Z,8.50
2023-01-26T23:28:06.037Z,7.58
2023-01-26T23:30:36.114Z,7.95
2023-01-26T23:33:05.495Z,7.53
2023-01-26T23:38:04.630Z,7.45
2023-01-26T23:43:16.106Z,7.08
2023-01-26T23:45:40.725Z,7.75
2023-01-26T23:48:10.369Z,8.70
2023-01-26T23:50:40.686Z,7.42
2023-01-26T23:53:11.656Z,7.30
2023-01-26T23:55:43.035Z,7.40
2023-01-26T23:58:13.306Z,7.62
